KCRX/CRX METAR and TAF weather

Enter ICAO airport designator
Station Type Date Time Source
KCRX METAR 2022/10/01 08:15 UTC NOAA

KCRX 010815Z AUTO 00000KT 10SM CLR 10/08 A2998 RMK AO2


Station Type Date Time Source
KCRX Decoded METAR 2022/10/01 08:15 UTC NOAA

Station name not available
Oct 01, 2022 - 04:15 AM EDT / 2022.10.01 0815 UTC
Wind: Calm:0
Visibility: 10 mile(s):0
Sky conditions: clear
Temperature: 50 F (10 C)
Dew Point: 46 F (8 C)
Relative Humidity: 87%
Pressure (altimeter): 29.98 in. Hg (1015 hPa)
ob: KCRX 010815Z AUTO 00000KT 10SM CLR 10/08 A2998 RMK AO2
cycle: 8

Station Type Date Time Source
KCRX TAF UTC NOAA

Error!

Example: see airport list